Portada
METAR-TAF:

METAR-TAF

Aeroports :

Txengdu, Xina

latitud: 30-40N, longitud: 104-01E, altitud: 508 m

Observació

L'informe es va fer fa 46 minuts, a les 11:00 UTC
Vent calma
Temperatura 11°C
Humitat 62%
Pressió 1016 hPa
Visibilitat: 6000 m
Núvols disperses a una alçada de 4000 ft

METAR: ZUUU 211100Z 00000MPS 6000 SCT040 11/04 Q1016 NOSIG

Hora: 19:46 (11:46 UTC)

Pronòstic

L'informe es va fer fa 3 hores i 40 minuts, a les 08:06 UTC
Pronòstic vàlid del 21 a les 12 UTC al 22 a les 12 UTC
Vent 6 kt del Nord/Nord-Est
Visibilitat: 5000 m
Núvols disperses a una alçada de 5000 ft
boirina
Evolucionant progressivament
l' 21 a les 22 UTC al 21 a les 23 UTC
Visibilitat: 2300 m
Evolucionant progressivament
l' 22 a les 01 UTC al 22 a les 02 UTC
Visibilitat: 5000 m

TAF: ZUUU 210806Z 2112/2212 02003MPS 5000 BR SCT050 TX13/2207Z TN05/2123Z BECMG 2122/2123 2300 BECMG 2201/2202 5000

Observacions i pronòstics meteorològics de més de 4000 aeroports (METAR i TAF).

Les estacions disponibles són els punts grocs i vermells al mapa.

Posi el ratolí al punt desitjat per veure el nom de l'estació.

Feu clic per veure les observacions i els pronòstics meteorològics.

Per canviar el mapa: feu clic els botons verds amb una creu de color negre per apropar; al botó verd amb un guió per allunyar la imatge; o en les fletxes verdes per a mapes adjacents.


METAR-TAF: